Data for 11/25/2013

Time Sea-Level Adjusted Pressure Absolute Pressure Temperature Relative Humidity Dew Point   
(mb) (inHg) (mb) (inHg) (C) (F) (%) (C) (F)
00:05 1023 30.21 852 25.16 0.2 32.4 72 -4.3 24.2
00:10 1023 30.21 852 25.16 0.3 32.5 74 -3.9 25
00:15 1023 30.21 852 25.16 0.2 32.3 72 -4.2 24.4
00:20 1023 30.21 852 25.16 0.3 32.5 70 -4.5 23.9
00:25 1023 30.21 852 25.16 0.7 33.2 71 -3.9 24.9
00:30 1023 30.21 852 25.16 1 33.7 71 -3.7 25.3
00:35 1023 30.21 852 25.16 1.1 34 67 -4.3 24.2
00:40 1023 30.21 852 25.16 0.9 33.6 71 -3.7 25.3
00:45 1023 30.21 852 25.16 0.5 32.9 72 -4 24.8
00:50 1023 30.21 852 25.16 0.6 33 69 -4.6 23.8
00:55 1023 30.21 852 25.16 0.7 33.3 71 -4 24.9
01:00 1023 30.21 852 25.16 0.5 32.8 72 -4 24.8
01:05 1023 30.21 852 25.16 0.3 32.6 73 -3.9 25
01:10 1023 30.21 852 25.16 0.2 32.4 74 -3.8 25.1
01:15 1023 30.21 852 25.16 0.2 32.3 73 -4 24.8
01:20 1023 30.21 852 25.16 0.3 32.5 73 -4 24.7
01:25 1023 30.21 852 25.16 0.3 32.6 72 -4.2 24.4
01:30 1023 30.21 852 25.16 0.5 32.9 70 -4.3 24.3
01:35 1023 30.21 852 25.16 0.5 33 70 -4.3 24.3
01:40 1023 30.21 852 25.16 0.6 33 71 -4 24.8
01:45 1023 30.21 852 25.16 0.4 32.8 73 -3.9 25
01:50 1023 30.21 852 25.16 0.3 32.5 73 -4 24.9
01:55 1023 30.21 852 25.16 0.5 33 72 -3.9 25
02:00 1023 30.21 852 25.16 0.7 33.2 74 -3.4 25.9
02:05 1023 30.21 852 25.16 0.7 33.2 74 -3.4 25.8
02:10 1023 30.21 852 25.16 0.6 33.1 75 -3.4 25.9
02:15 1023 30.21 852 25.16 0.6 33.1 73 -3.8 25.2
02:20 1023 30.21 852 25.16 0.7 33.2 73 -3.6 25.6
02:25 1023 30.21 852 25.16 0.8 33.4 74 -3.4 26
02:30 1023 30.21 852 25.16 0.5 33 76 -3.2 26.3
02:35 1023 30.21 852 25.16 0.4 32.7 71 -4.2 24.4
02:40 1023 30.21 852 25.16 0.6 33.1 71 -4.1 24.6
02:45 1023 30.21 852 25.16 0.7 33.2 70 -4.1 24.6
02:50 1023 30.21 852 25.16 0.6 33.1 74 -3.5 25.7
02:55 1023 30.21 852 25.16 0.2 32.4 76 -3.6 25.6
03:00 1023 30.21 853 25.19 0.2 32.3 73 -4.1 24.6
03:05 1023 30.21 853 25.19 0.1 32.2 74 -3.9 25
03:10 1023 30.21 853 25.19 0.1 32.2 73 -4.2 24.5
03:15 1023 30.21 853 25.19 0.2 32.3 71 -4.5 23.8
03:20 1024 30.24 853 25.19 0.2 32.4 69 -4.9 23.3
03:25 1024 30.24 853 25.19 0.3 32.5 69 -4.7 23.5
03:30 1024 30.24 853 25.19 0.4 32.6 69 -4.7 23.6
03:35 1024 30.24 853 25.19 0.6 33 68 -4.6 23.7
03:40 1024 30.24 853 25.19 0.5 33 75 -3.3 26
03:45 1024 30.24 853 25.19 0.3 32.5 71 -4.4 24.1
03:50 1024 30.24 853 25.19 0.1 32.1 75 -3.8 25.1
03:55 1024 30.24 853 25.19 -0.1 31.7 76 -3.9 25
04:00 1024 30.24 853 25.19 -0.2 31.6 76 -3.9 25
04:05 1024 30.24 853 25.19 -0.2 31.6 77 -3.8 25.2
04:10 1024 30.24 853 25.19 -0.2 31.6 77 -3.8 25.1
04:15 1024 30.24 853 25.19 -0.3 31.5 79 -3.5 25.7
04:20 1024 30.24 853 25.19 -0.5 31.1 79 -3.7 25.4
04:25 1024 30.24 853 25.19 -0.6 30.9 80 -3.7 25.4
04:30 1024 30.24 853 25.19 -0.7 30.7 80 -3.8 25.2
04:35 1024 30.24 853 25.19 -0.9 30.5 78 -4.2 24.4
04:40 1024 30.24 853 25.19 -0.8 30.5 79 -4.1 24.7
04:45 1024 30.24 853 25.19 -0.7 30.7 79 -3.9 24.9
04:50 1024 30.24 853 25.19 -0.6 30.9 79 -3.9 25
04:55 1024 30.24 853 25.19 -0.6 30.9 78 -4 24.8
05:00 1024 30.24 853 25.19 -0.6 31 78 -4 24.9
05:05 1024 30.24 853 25.19 -0.5 31.1 77 -4 24.7
05:10 1024 30.24 853 25.19 -0.5 31.1 79 -3.7 25.3
05:15 1024 30.24 853 25.19 -0.5 31 81 -3.5 25.7
05:20 1024 30.24 853 25.19 -0.8 30.5 83 -3.3 26
05:25 1024 30.24 853 25.19 -1 30.3 82 -3.6 25.5
05:30 1024 30.24 853 25.19 -0.9 30.4 81 -3.7 25.3
05:35 1024 30.24 853 25.19 -0.9 30.4 79 -4.1 24.7
05:40 1024 30.24 853 25.19 -0.6 31 80 -3.7 25.4
05:45 1024 30.24 853 25.19 -0.5 31.1 76 -4.2 24.5
05:50 1024 30.24 853 25.19 -0.3 31.5 77 -3.8 25.2
05:55 1024 30.24 853 25.19 -0.5 31.2 79 -3.6 25.5
06:00 1024 30.24 853 25.19 -0.6 30.9 79 -3.8 25.1
06:05 1024 30.24 853 25.19 -0.5 31.1 79 -3.7 25.3
06:10 1024 30.24 853 25.19 -0.6 31 79 -3.8 25.2
06:15 1024 30.24 853 25.19 -0.7 30.8 81 -3.6 25.6
06:20 1024 30.24 853 25.19 -1 30.2 84 -3.5 25.8
06:25 1024 30.24 853 25.19 -1.3 29.6 85 -3.6 25.6
06:30 1024 30.24 853 25.19 -1.4 29.5 84 -3.7 25.4
06:35 1024 30.24 854 25.22 -1.3 29.7 83 -3.8 25.2
06:40 1024 30.24 854 25.22 -1.1 30.1 81 -4 24.9
06:45 1024 30.24 854 25.22 -1 30.1 80 -4.1 24.6
06:50 1024 30.24 854 25.22 -0.9 30.4 79 -4.1 24.6
06:55 1024 30.24 854 25.22 -1 30.2 78 -4.3 24.3
07:00 1024 30.24 854 25.22 -1.1 30 79 -4.3 24.3
07:05 1025 30.27 854 25.22 -1.3 29.7 81 -4.1 24.7
07:10 1025 30.27 854 25.22 -1.6 29.2 84 -3.9 25
07:15 1025 30.27 854 25.22 -1.8 28.7 86 -3.9 24.9
07:20 1025 30.27 854 25.22 -2 28.3 87 -4 24.8
07:25 1025 30.27 854 25.22 -2.2 28 88 -4 24.7
07:30 1025 30.27 854 25.22 -2.2 28 87 -4.1 24.5
07:35 1025 30.27 854 25.22 -2.1 28.1 86 -4.2 24.4
07:40 1025 30.27 854 25.22 -2.1 28.3 84 -4.4 24.1
07:45 1025 30.27 854 25.22 -2 28.3 83 -4.5 23.9
07:50 1025 30.27 854 25.22 -2 28.5 82 -4.6 23.8
07:55 1025 30.27 854 25.22 -2.1 28.3 82 -4.7 23.5
08:00 1025 30.27 854 25.22 -2.1 28.1 81 -4.9 23.1
08:05 1025 30.27 854 25.22 -2.2 28.1 80 -5.1 22.8
08:10 1025 30.27 854 25.22 -2.4 27.7 82 -5.1 22.8
08:15 1025 30.27 854 25.22 -3 26.5 86 -5.1 22.7
08:20 1025 30.27 854 25.22 -3.6 25.5 88 -5.3 22.5
08:25 1025 30.27 854 25.22 -3.6 25.5 87 -5.6 22
08:30 1025 30.27 854 25.22 -3.6 25.6 87 -5.4 22.3
08:35 1025 30.27 854 25.22 -3.3 26 84 -5.6 21.9
08:40 1025 30.27 854 25.22 -3.3 26 84 -5.6 22
08:45 1025 30.27 854 25.22 -3.4 25.9 85 -5.6 21.9
08:50 1025 30.27 855 25.25 -3.4 25.9 85 -5.6 21.9
08:55 1026 30.3 855 25.25 -3.3 26 84 -5.7 21.7
09:00 1026 30.3 855 25.25 -3.3 26.1 83 -5.7 21.7
09:05 1026 30.3 855 25.25 -3 26.5 82 -5.7 21.7
09:10 1026 30.3 855 25.25 -2.4 27.6 79 -5.6 22
09:15 1026 30.3 855 25.25 -2.4 27.7 79 -5.6 21.9
09:20 1026 30.3 855 25.25 -2.5 27.5 78 -5.7 21.7
09:25 1026 30.3 855 25.25 -2.3 27.9 77 -5.9 21.5
09:30 1026 30.3 855 25.25 -2.5 27.5 78 -5.9 21.5
09:35 1026 30.3 855 25.25 -2.7 27.2 78 -6.1 21.1
09:40 1026 30.3 855 25.25 -2.6 27.3 77 -6.2 20.9
09:45 1026 30.3 855 25.25 -2.5 27.4 76 -6.2 20.8
09:50 1026 30.3 856 25.28 -2.1 28.2 73 -6.3 20.7
09:55 1026 30.3 856 25.28 -1.8 28.9 72 -6.2 20.9
10:00 1026 30.3 856 25.28 -2.1 28.2 74 -6.1 20.9
10:05 1026 30.3 856 25.28 -1.9 28.6 71 -6.6 20.2
10:10 1027 30.33 856 25.28 -1.5 29.4 69 -6.5 20.3
10:15 1027 30.33 856 25.28 -1.3 29.6 68 -6.5 20.3
10:20 1027 30.33 856 25.28 -1.1 29.9 67 -6.4 20.5
10:25 1027 30.33 856 25.28 -0.5 31 66 -6.1 21
10:30 1027 30.33 856 25.28 -0.7 30.7 68 -5.8 21.5
10:35 1027 30.33 856 25.28 -0.9 30.3 68 -6.1 21.1
10:40 1027 30.33 856 25.28 -0.6 30.9 68 -5.9 21.4
10:45 1027 30.33 856 25.28 0 32 65 -5.8 21.5
10:50 1027 30.33 856 25.28 0.6 33.2 62 -5.8 21.6
10:55 1027 30.33 856 25.28 1 33.8 62 -5.5 22
11:00 1027 30.33 856 25.28 1.1 34 61 -5.6 21.9
11:05 1027 30.33 856 25.28 0.8 33.5 62 -5.6 21.9
11:10 1027 30.33 856 25.28 0.7 33.2 62 -5.8 21.6
11:15 1027 30.33 856 25.28 1.2 34.1 61 -5.6 21.9
11:20 1027 30.33 856 25.28 1.7 35 59 -5.5 22.1
11:25 1027 30.33 856 25.28 2 35.6 57 -5.6 21.9
11:30 1027 30.33 856 25.28 2.3 36.2 55 -5.8 21.5
11:35 1027 30.33 856 25.28 2.7 36.8 53 -5.9 21.4
11:40 1027 30.33 856 25.28 3 37.4 51 -6.2 20.8
11:45 1027 30.33 856 25.28 3.2 37.8 52 -5.6 21.9
11:50 1027 30.33 856 25.28 3.5 38.2 50 -6 21.2
11:55 1027 30.33 856 25.28 3.8 38.8 50 -5.7 21.7
12:00 1027 30.33 856 25.28 4.2 39.5 48 -5.8 21.6
12:05 1027 30.33 856 25.28 4.3 39.8 46 -6.3 20.7
12:10 1027 30.33 856 25.28 4.1 39.4 48 -5.8 21.5
12:15 1027 30.33 856 25.28 3.8 38.9 49 -6 21.1
12:20 1027 30.33 856 25.28 4.4 40 46 -6.3 20.6
12:25 1027 30.33 856 25.28 4.4 40 45 -6.3 20.6
12:30 1027 30.33 856 25.28 4.2 39.5 44 -6.9 19.6
12:35 1027 30.33 856 25.28 4.2 39.5 44 -7.1 19.3
12:40 1027 30.33 856 25.28 4.6 40.3 41 -7.4 18.7
12:45 1027 30.33 856 25.28 5.3 41.6 40 -7.1 19.2
12:50 1027 30.33 856 25.28 5.8 42.5 40 -6.7 20
12:55 1027 30.33 856 25.28 6.4 43.5 33 -8.8 16.1
13:00 1027 30.33 856 25.28 6.5 43.6 33 -8.6 16.5
13:05 1027 30.33 856 25.28 6.3 43.3 35 -8.1 17.4
13:10 1027 30.33 856 25.28 6.5 43.7 35 -7.9 17.8
13:15 1027 30.33 856 25.28 6.9 44.3 33 -8.2 17.3
13:20 1027 30.33 856 25.28 6.6 43.9 36 -7.3 18.8
13:25 1027 30.33 856 25.28 6.6 43.9 35 -7.6 18.3
13:30 1027 30.33 856 25.28 6.5 43.7 35 -7.8 18
13:35 1027 30.33 856 25.28 6.4 43.5 36 -7.7 18.1
13:40 1027 30.33 856 25.28 6.5 43.8 33 -8.5 16.7
13:45 1027 30.33 856 25.28 7.4 45.3 33 -7.8 17.9
13:50 1027 30.33 856 25.28 7.5 45.4 36 -6.7 20
13:55 1027 30.33 856 25.28 7.9 46.1 32 -7.7 18.2
14:00 1027 30.33 856 25.28 7.5 45.5 36 -6.8 19.8
14:05 1027 30.33 856 25.28 6.8 44.2 37 -6.9 19.6
14:10 1027 30.33 856 25.28 7.4 45.3 35 -7.1 19.2
14:15 1027 30.33 856 25.28 7.8 46 34 -7.2 19
14:20 1027 30.33 856 25.28 7.8 46.1 33 -7.3 18.8
14:25 1027 30.33 856 25.28 7.2 44.9 36 -6.8 19.8
14:30 1027 30.33 856 25.28 7.4 45.4 34 -7.4 18.6
14:35 1027 30.33 856 25.28 7.8 46 35 -6.6 20.1
14:40 1027 30.33 856 25.28 7.4 45.3 36 -6.8 19.8
14:45 1027 30.33 856 25.28 7.5 45.5 36 -6.5 20.4
14:50 1027 30.33 856 25.28 7.6 45.8 36 -6.6 20.2
14:55 1027 30.33 856 25.28 7.7 45.9 35 -6.8 19.8
15:00 1027 30.33 856 25.28 7.7 45.8 36 -6.6 20.1
15:05 1027 30.33 856 25.28 7.7 45.8 36 -6.6 20.1
15:10 1027 30.33 856 25.28 7.7 45.8 36 -6.6 20.2
15:15 1027 30.33 856 25.28 7.9 46.2 34 -7 19.3
15:20 1027 30.33 856 25.28 7.9 46.2 36 -6.4 20.5
15:25 1027 30.33 856 25.28 7.7 45.9 36 -6.2 20.8
15:30 1027 30.33 856 25.28 7.4 45.3 35 -7.1 19.3
15:35 1027 30.33 856 25.28 7.8 46 34 -7.1 19.2
15:40 1027 30.33 856 25.28 7.8 46.1 35 -6.6 20.2
15:45 1027 30.33 856 25.28 7.7 45.9 34 -7.1 19.2
15:50 1027 30.33 856 25.28 7.6 45.7 35 -6.8 19.8
15:55 1027 30.33 856 25.28 7.4 45.3 36 -6.6 20.1
16:00 1027 30.33 856 25.28 7.6 45.7 35 -6.8 19.7
16:05 1027 30.33 856 25.28 7.7 45.9 34 -7 19.4
16:10 1027 30.33 856 25.28 7.4 45.4 35 -6.9 19.5
16:15 1027 30.33 856 25.28 7.2 45 40 -5.4 22.3
16:20 1027 30.33 856 25.28 6.6 43.9 41 -5.6 21.9
16:25 1027 30.33 856 25.28 6.5 43.7 40 -6.3 20.7
16:30 1027 30.33 856 25.28 6.3 43.3 41 -6.1 21
16:35 1027 30.33 856 25.28 5.7 42.3 42 -6.2 20.9
16:40 1027 30.33 856 25.28 5.4 41.7 42 -6.4 20.5
16:45 1027 30.33 856 25.28 5.5 41.9 42 -6.5 20.4
16:50 1027 30.33 856 25.28 5.4 41.7 41 -6.8 19.7
16:55 1027 30.33 856 25.28 5.3 41.5 42 -6.5 20.3
17:00 1027 30.33 856 25.28 5.1 41.2 43 -6.5 20.3
17:05 1027 30.33 856 25.28 5.1 41.2 43 -6.4 20.5
17:10 1027 30.33 856 25.28 5.4 41.8 42 -6.4 20.4
17:15 1027 30.33 856 25.28 5.3 41.5 42 -6.6 20
17:20 1027 30.33 856 25.28 5.2 41.4 44 -6.1 21.1
17:25 1027 30.33 856 25.28 5.1 41.3 46 -5.4 22.3
17:30 1027 30.33 856 25.28 4.7 40.4 52 -4.2 24.4
17:35 1027 30.33 856 25.28 4.1 39.4 56 -4 24.9
17:40 1027 30.33 856 25.28 3.6 38.4 59 -3.7 25.3
17:45 1027 30.33 856 25.28 3 37.4 61 -3.7 25.4
17:50 1027 30.33 856 25.28 2.8 37.1 62 -3.8 25.2
17:55 1027 30.33 856 25.28 2.3 36.2 64 -3.8 25.1
18:00 1027 30.33 856 25.28 1.9 35.4 66 -3.9 25
18:05 1027 30.33 856 25.28 1.5 34.7 66 -4.2 24.5
18:10 1027 30.33 856 25.28 1.4 34.6 66 -4.2 24.4
18:15 1027 30.33 856 25.28 1.4 34.6 67 -4 24.9
18:20 1027 30.33 856 25.28 1.3 34.3 68 -4.1 24.7
18:25 1027 30.33 856 25.28 1.3 34.4 67 -4.2 24.4
18:30 1027 30.33 856 25.28 1.1 34 68 -4.1 24.6
18:35 1027 30.33 856 25.28 0.8 33.5 68 -4.4 24.1
18:40 1027 30.33 856 25.28 0.8 33.4 68 -4.4 24.1
18:45 1027 30.33 856 25.28 0.7 33.2 68 -4.5 23.9
18:50 1027 30.33 856 25.28 0.6 33 69 -4.5 24
18:55 1027 30.33 856 25.28 0.4 32.8 69 -4.5 23.8
19:00 1027 30.33 856 25.28 0.5 32.9 68 -4.8 23.3
19:05 1027 30.33 856 25.28 0.6 33.1 68 -4.7 23.5
19:10 1027 30.33 856 25.28 0.4 32.7 69 -4.7 23.6
19:15 1027 30.33 856 25.28 0.2 32.4 69 -4.9 23.2
19:20 1027 30.33 856 25.28 0.4 32.7 66 -5.2 22.7
19:25 1027 30.33 856 25.28 1 33.8 63 -5.4 22.4
19:30 1027 30.33 856 25.28 1.3 34.4 62 -5.1 22.9
19:35 1027 30.33 856 25.28 1.3 34.4 61 -5.3 22.5
19:40 1027 30.33 856 25.28 1.3 34.4 60 -5.6 22
19:45 1027 30.33 856 25.28 1.5 34.8 60 -5.5 22.2
19:50 1027 30.33 856 25.28 1.4 34.5 59 -5.7 21.7
19:55 1027 30.33 856 25.28 1.6 34.8 60 -5.4 22.3
20:00 1027 30.33 856 25.28 1.5 34.7 61 -5.3 22.5
20:05 1027 30.33 856 25.28 1.2 34.2 61 -5.4 22.3
20:10 1027 30.33 856 25.28 1.1 34 63 -5.2 22.6
20:15 1027 30.33 856 25.28 1 33.7 62 -5.5 22.1
20:20 1027 30.33 856 25.28 1 33.8 62 -5.5 22.1
20:25 1027 30.33 857 25.31 0.9 33.5 63 -5.3 22.4
20:30 1027 30.33 857 25.31 0.8 33.5 63 -5.5 22.2
20:35 1027 30.33 857 25.31 0.8 33.4 64 -5.3 22.5
20:40 1027 30.33 857 25.31 0.7 33.3 63 -5.5 22.1
20:45 1027 30.33 857 25.31 0.9 33.7 61 -5.8 21.5
20:50 1028 30.36 857 25.31 1.4 34.5 59 -5.8 21.6
20:55 1028 30.36 857 25.31 1.4 34.5 62 -5.2 22.7
21:00 1027 30.33 857 25.31 1 33.8 63 -5.3 22.4
21:05 1027 30.33 857 25.31 0.9 33.6 64 -5.2 22.6
21:10 1027 30.33 857 25.31 0.5 32.9 66 -5.2 22.6
21:15 1027 30.33 857 25.31 -0.1 31.9 67 -5.5 22.1
21:20 1027 30.33 857 25.31 -0.1 31.9 67 -5.4 22.2
21:25 1027 30.33 857 25.31 -0.2 31.7 68 -5.3 22.4
21:30 1027 30.33 857 25.31 -0.1 31.7 66 -5.7 21.8
21:35 1027 30.33 857 25.31 0.3 32.5 64 -5.7 21.7
21:40 1027 30.33 857 25.31 0.4 32.8 64 -5.6 21.9
21:45 1027 30.33 857 25.31 0.6 33.1 62 -5.8 21.5
21:50 1027 30.33 857 25.31 0.8 33.4 62 -5.6 22
21:55 1027 30.33 857 25.31 0.4 32.7 64 -5.7 21.8
22:00 1027 30.33 856 25.28 0.2 32.3 65 -5.6 21.9
22:05 1027 30.33 856 25.28 0 32 65 -5.8 21.6
22:10 1027 30.33 856 25.28 0.4 32.6 64 -5.7 21.8
22:15 1027 30.33 857 25.31 0.4 32.8 65 -5.4 22.3
22:20 1027 30.33 856 25.28 0.2 32.4 65 -5.5 22.1
22:25 1027 30.33 856 25.28 0.1 32.2 66 -5.5 22.1
22:30 1027 30.33 856 25.28 -0.3 31.4 68 -5.6 21.9
22:35 1027 30.33 857 25.31 -0.8 30.6 67 -6.2 20.9
22:40 1027 30.33 857 25.31 -0.5 31.2 66 -6 21.1
22:45 1027 30.33 857 25.31 -0.5 31.2 68 -5.7 21.7
22:50 1027 30.33 857 25.31 -0.5 31.1 66 -6 21.2
22:55 1027 30.33 857 25.31 -0.4 31.3 67 -5.8 21.6
23:00 1027 30.33 857 25.31 -0.5 31 68 -5.8 21.6
23:05 1027 30.33 857 25.31 -0.4 31.3 67 -5.9 21.4
23:10 1027 30.33 856 25.28 -0.2 31.7 66 -5.8 21.5
23:15 1027 30.33 857 25.31 -0.2 31.6 65 -6 21.2
23:20 1027 30.33 857 25.31 -0 32 64 -6 21.2
23:25 1027 30.33 857 25.31 0.2 32.3 63 -6 21.1
23:30 1027 30.33 857 25.31 0.2 32.3 64 -5.8 21.5
23:35 1027 30.33 857 25.31 -0.1 31.8 65 -6 21.3
23:40 1027 30.33 857 25.31 0 32.1 64 -6 21.2
23:45 1027 30.33 857 25.31 -0.1 31.7 65 -5.9 21.4
23:50 1028 30.36 857 25.31 -0.4 31.3 66 -5.9 21.3
23:55 1028 30.36 857 25.31 -0.3 31.5 65 -6 21.1
24:00 1028 30.36 857 25.31 -0 32 65 -5.9 21.4